Time;durP1;ratioP1;P1;durP2;ratioP2;P2;SDS_P1;SDS_P2;PMS_P1;PMS_P2;Temp;Humidity;BMP_temperature;BMP_pressure;BME280_temperature;BME280_humidity;BME280_pressure;Samples;Min_cycle;Max_cycle;Signal;HPM_P1;HPM_P2
2022/08/25 00:03:55;;;;;;;4.78;4.30;;;;;;;;;;10081089;29;20426;-89
2022/08/25 00:08:58;;;;;;;4.70;4.20;;;;;;;;;;10079654;29;20425;-89
2022/08/25 00:14:04;;;;;;;4.40;3.72;;;;;;;;;;10074443;29;20824;-89
2022/08/25 00:19:09;;;;;;;4.67;3.97;;;;;;;;;;10074105;29;20451;-89
2022/08/25 00:24:12;;;;;;;4.70;4.20;;;;;;;;;;10073777;29;20506;-88
2022/08/25 00:29:17;;;;;;;4.88;4.28;;;;;;;;;;10073768;29;20521;-87
2022/08/25 00:34:22;;;;;;;6.00;4.37;;;;;;;;;;10069233;29;21036;-89
2022/08/25 00:39:26;;;;;;;4.65;4.18;;;;;;;;;;10076914;29;20422;-89
2022/08/25 00:44:32;;;;;;;6.07;4.57;;;;;;;;;;10070654;29;20423;-89
2022/08/25 00:49:37;;;;;;;5.03;4.53;;;;;;;;;;10076481;29;20471;-89
2022/08/25 00:54:44;;;;;;;4.68;4.03;;;;;;;;;;10086536;29;20465;-88
2022/08/25 00:59:48;;;;;;;4.60;3.70;;;;;;;;;;10094823;29;20932;-89
2022/08/25 01:04:51;;;;;;;5.80;3.97;;;;;;;;;;10075925;29;20428;-89
2022/08/25 01:09:53;;;;;;;4.70;4.20;;;;;;;;;;10078211;29;20502;-89
2022/08/25 01:14:57;;;;;;;8.82;5.55;;;;;;;;;;10071244;29;20523;-89
2022/08/25 01:19:59;;;;;;;6.75;5.65;;;;;;;;;;10075082;29;20456;-89
2022/08/25 01:25:13;;;;;;;7.13;5.80;;;;;;;;;;10074639;29;20431;-89
2022/08/25 01:30:15;;;;;;;6.73;5.83;;;;;;;;;;10068889;29;20419;-89
2022/08/25 01:35:17;;;;;;;8.43;6.68;;;;;;;;;;10075433;29;20432;-89
2022/08/25 01:40:21;;;;;;;8.75;6.82;;;;;;;;;;10077062;29;20471;-88
2022/08/25 01:45:23;;;;;;;8.23;7.20;;;;;;;;;;10072613;29;20435;-89
2022/08/25 01:50:26;;;;;;;8.38;7.18;;;;;;;;;;10074458;29;20428;-89
2022/08/25 01:55:30;;;;;;;8.07;6.85;;;;;;;;;;10074725;29;20525;-89
2022/08/25 02:00:32;;;;;;;7.28;6.35;;;;;;;;;;10075192;29;20503;-89
2022/08/25 02:05:33;;;;;;;7.10;6.40;;;;;;;;;;10069685;29;20524;-89
2022/08/25 02:10:37;;;;;;;6.90;6.20;;;;;;;;;;10073595;29;20452;-89
2022/08/25 02:15:42;;;;;;;6.53;5.85;;;;;;;;;;10071943;29;20530;-88
2022/08/25 02:20:44;;;;;;;7.68;5.88;;;;;;;;;;10073311;29;20470;-89
2022/08/25 02:25:48;;;;;;;5.80;5.03;;;;;;;;;;10071476;29;20478;-88
2022/08/25 02:30:51;;;;;;;5.55;5.00;;;;;;;;;;10065992;29;20923;-89
2022/08/25 02:35:56;;;;;;;5.05;4.53;;;;;;;;;;10069089;29;20475;-89
2022/08/25 02:41:01;;;;;;;4.65;4.22;;;;;;;;;;10073751;29;20455;-89
2022/08/25 02:46:03;;;;;;;5.43;4.00;;;;;;;;;;10068224;29;20453;-89
2022/08/25 02:51:06;;;;;;;5.00;4.27;;;;;;;;;;10074762;29;20972;-89
2022/08/25 02:56:10;;;;;;;4.93;4.03;;;;;;;;;;10063220;29;20436;-89
2022/08/25 03:01:13;;;;;;;4.55;4.20;;;;;;;;;;10067759;29;20486;-89
2022/08/25 03:06:19;;;;;;;4.88;4.28;;;;;;;;;;10070540;29;20506;-89
2022/08/25 03:11:23;;;;;;;4.85;3.92;;;;;;;;;;10070854;29;20505;-89
2022/08/25 03:16:26;;;;;;;4.57;4.00;;;;;;;;;;10081430;29;21094;-89
2022/08/25 03:21:29;;;;;;;4.45;3.90;;;;;;;;;;10001094;29;2033049;-89
2022/08/25 03:31:54;;;;;;;4.35;3.60;;;;;;;;;;10069179;29;20419;-89
2022/08/25 03:36:57;;;;;;;4.30;3.90;;;;;;;;;;10070951;29;20470;-88
2022/08/25 03:42:04;;;;;;;4.55;4.00;;;;;;;;;;10068324;29;20843;-89
2022/08/25 03:47:06;;;;;;;5.10;4.18;;;;;;;;;;10071356;29;20446;-89
2022/08/25 03:52:08;;;;;;;4.80;4.35;;;;;;;;;;10070551;29;20483;-88
2022/08/25 03:57:12;;;;;;;5.95;4.60;;;;;;;;;;10062340;29;20521;-89
2022/08/25 04:02:15;;;;;;;4.93;4.53;;;;;;;;;;10067891;29;20446;-89
2022/08/25 04:07:17;;;;;;;5.20;4.70;;;;;;;;;;10076189;29;20517;-89
2022/08/25 04:12:20;;;;;;;5.15;4.65;;;;;;;;;;10074019;29;20842;-88
2022/08/25 04:17:22;;;;;;;6.15;4.18;;;;;;;;;;10076710;29;20877;-89
2022/08/25 04:22:30;;;;;;;5.57;4.65;;;;;;;;;;10079737;29;20433;-89
2022/08/25 04:27:34;;;;;;;4.55;4.05;;;;;;;;;;9971897;29;20435;-88
2022/08/25 04:32:37;;;;;;;7.05;4.15;;;;;;;;;;9981536;29;20867;-88
2022/08/25 04:37:39;;;;;;;4.88;4.38;;;;;;;;;;9960764;29;20432;-88
2022/08/25 04:42:43;;;;;;;5.22;4.15;;;;;;;;;;9975046;29;20419;-88
2022/08/25 04:47:45;;;;;;;9.83;7.17;;;;;;;;;;9974355;29;20420;-88
2022/08/25 04:52:48;;;;;;;5.20;4.70;;;;;;;;;;9961011;29;20893;-88
2022/08/25 04:57:51;;;;;;;6.00;4.53;;;;;;;;;;9973185;29;20527;-88
2022/08/25 05:02:54;;;;;;;6.70;5.57;;;;;;;;;;9979678;29;21088;-88
2022/08/25 05:07:56;;;;;;;5.78;5.07;;;;;;;;;;9979971;29;20519;-87
2022/08/25 05:12:59;;;;;;;5.50;5.00;;;;;;;;;;9974021;29;20867;-87
2022/08/25 05:18:02;;;;;;;6.53;5.10;;;;;;;;;;9961181;29;20456;-87
2022/08/25 05:23:03;;;;;;;6.07;5.10;;;;;;;;;;9979425;29;20778;-88
2022/08/25 05:28:07;;;;;;;5.40;4.90;;;;;;;;;;9977424;29;20428;-88
2022/08/25 05:33:10;;;;;;;7.17;5.03;;;;;;;;;;9978907;29;20520;-88
2022/08/25 05:38:11;;;;;;;8.40;5.40;;;;;;;;;;9979222;29;20503;-87
2022/08/25 05:43:15;;;;;;;5.73;5.13;;;;;;;;;;9975741;29;20511;-88
2022/08/25 05:48:16;;;;;;;6.73;5.00;;;;;;;;;;9979097;29;20428;-88
2022/08/25 05:53:18;;;;;;;6.70;4.80;;;;;;;;;;9971176;29;20515;-87
2022/08/25 05:58:22;;;;;;;5.10;4.60;;;;;;;;;;9975329;29;20488;-87
2022/08/25 06:03:24;;;;;;;5.57;4.27;;;;;;;;;;9977949;29;20511;-87
2022/08/25 06:08:31;;;;;;;6.38;4.45;;;;;;;;;;9978119;29;20426;-87
2022/08/25 06:13:34;;;;;;;4.60;4.20;;;;;;;;;;9974817;29;20435;-88
2022/08/25 06:18:36;;;;;;;3.95;3.55;;;;;;;;;;9977374;29;20507;-87
2022/08/25 06:23:38;;;;;;;6.97;3.88;;;;;;;;;;9956417;29;20507;-87
2022/08/25 06:28:42;;;;;;;5.23;3.97;;;;;;;;;;9976003;29;20502;-87
2022/08/25 06:33:45;;;;;;;6.13;3.88;;;;;;;;;;9970856;29;20523;-87
2022/08/25 06:38:47;;;;;;;6.40;4.10;;;;;;;;;;9976540;29;20431;-88
2022/08/25 06:43:51;;;;;;;4.85;3.92;;;;;;;;;;9974301;29;20698;-88
2022/08/25 06:48:55;;;;;;;6.50;3.90;;;;;;;;;;9977429;29;20430;-88
2022/08/25 06:53:57;;;;;;;5.40;4.00;;;;;;;;;;9976456;29;20444;-88
2022/08/25 06:59:00;;;;;;;4.93;3.87;;;;;;;;;;9968126;29;20515;-88
2022/08/25 07:04:05;;;;;;;4.83;3.70;;;;;;;;;;9977160;29;20975;-88
2022/08/25 07:09:09;;;;;;;4.72;3.92;;;;;;;;;;9976496;29;20442;-87
2022/08/25 07:14:14;;;;;;;6.82;4.00;;;;;;;;;;9972711;29;20479;-88
2022/08/25 07:19:19;;;;;;;4.27;3.33;;;;;;;;;;9969991;29;20500;-87
2022/08/25 07:24:22;;;;;;;4.13;3.17;;;;;;;;;;9969661;29;20526;-88
2022/08/25 07:29:27;;;;;;;3.97;3.13;;;;;;;;;;9973792;29;20535;-88
2022/08/25 07:39:48;;;;;;;3.20;2.90;;;;;;;;;;9972394;29;20408;-88
2022/08/25 07:44:52;;;;;;;5.70;2.90;;;;;;;;;;9979542;29;20524;-88
2022/08/25 07:49:54;;;;;;;4.63;3.15;;;;;;;;;;9982826;29;20461;-88
2022/08/25 07:54:56;;;;;;;5.53;3.80;;;;;;;;;;9982122;29;20916;-88
2022/08/25 07:59:59;;;;;;;6.43;3.70;;;;;;;;;;9981987;29;20451;-88
2022/08/25 08:05:01;;;;;;;5.13;3.10;;;;;;;;;;9982774;29;20442;-88
2022/08/25 08:10:05;;;;;;;3.30;3.00;;;;;;;;;;9982468;29;20451;-89
2022/08/25 08:15:09;;;;;;;3.88;3.10;;;;;;;;;;9978267;29;20866;-88
2022/08/25 08:20:12;;;;;;;5.30;3.00;;;;;;;;;;9981334;29;20491;-88
2022/08/25 08:25:14;;;;;;;5.28;3.35;;;;;;;;;;9971473;29;21001;-88
2022/08/25 08:30:18;;;;;;;4.18;3.47;;;;;;;;;;9962404;29;20785;-88
2022/08/25 08:35:20;;;;;;;4.75;3.08;;;;;;;;;;9981482;29;20450;-88
2022/08/25 08:40:22;;;;;;;5.78;3.15;;;;;;;;;;9980885;29;20428;-87
2022/08/25 08:45:32;;;;;;;9.40;4.23;;;;;;;;;;9978074;29;20432;-88
2022/08/25 08:50:41;;;;;;;3.90;3.20;;;;;;;;;;9963945;29;20424;-88
2022/08/25 08:55:48;;;;;;;4.40;3.50;;;;;;;;;;9965073;29;20470;-88
2022/08/25 09:00:54;;;;;;;4.22;3.28;;;;;;;;;;9977183;29;20744;-88
2022/08/25 09:06:00;;;;;;;4.72;3.53;;;;;;;;;;9980816;29;20939;-88
2022/08/25 09:11:07;;;;;;;4.43;3.30;;;;;;;;;;9980836;29;20865;-88
2022/08/25 09:21:47;;;;;;;4.57;3.07;;;;;;;;;;9966696;29;20422;-88
2022/08/25 09:27:00;;;;;;;5.33;3.57;;;;;;;;;;9968873;29;20794;-88
2022/08/25 09:32:07;;;;;;;4.80;3.60;;;;;;;;;;9978558;29;20428;-89
2022/08/25 09:37:09;;;;;;;4.90;3.05;;;;;;;;;;9979160;29;20531;-88
2022/08/25 09:42:10;;;;;;;3.53;2.80;;;;;;;;;;9978146;29;20451;-88
2022/08/25 09:47:22;;;;;;;3.20;2.90;;;;;;;;;;9975911;29;20428;-88
2022/08/25 09:52:31;;;;;;;4.00;3.30;;;;;;;;;;9979185;29;20527;-88
2022/08/25 09:57:36;;;;;;;4.37;3.20;;;;;;;;;;9964583;29;20920;-88
2022/08/25 10:02:41;;;;;;;3.70;2.90;;;;;;;;;;9978442;29;20538;-89
2022/08/25 10:07:52;;;;;;;4.65;3.10;;;;;;;;;;9978897;29;20503;-88
2022/08/25 10:12:57;;;;;;;4.55;3.20;;;;;;;;;;9974827;29;20517;-89
2022/08/25 10:18:21;;;;;;;3.55;3.15;;;;;;;;;;9978415;29;20504;-89
2022/08/25 10:23:27;;;;;;;3.30;3.00;;;;;;;;;;9966770;29;20805;-89
2022/08/25 10:28:38;;;;;;;3.10;2.80;;;;;;;;;;9976772;29;20439;-88
2022/08/25 10:33:52;;;;;;;4.75;3.33;;;;;;;;;;9977571;29;20426;-88
2022/08/25 10:38:57;;;;;;;4.55;3.25;;;;;;;;;;9973076;29;20447;-88
2022/08/25 10:45:41;;;;;;;4.82;3.08;;;;;;;;;;9977374;29;20527;-89
2022/08/25 10:49:41;;;;;;;6.40;3.10;;;;;;;;;;9977579;29;20420;-89
2022/08/25 10:54:51;;;;;;;5.47;3.30;;;;;;;;;;9968222;29;20511;-89
2022/08/25 11:00:05;;;;;;;4.05;3.30;;;;;;;;;;9976504;29;20470;-89
2022/08/25 11:05:14;;;;;;;3.45;3.10;;;;;;;;;;9977436;29;20431;-88
2022/08/25 11:10:20;;;;;;;3.38;3.08;;;;;;;;;;9970817;29;20415;-89
2022/08/25 11:15:26;;;;;;;5.43;2.80;;;;;;;;;;9980706;29;20440;-88
2022/08/25 11:20:37;;;;;;;5.03;3.40;;;;;;;;;;9984534;29;20435;-89
2022/08/25 11:25:43;;;;;;;4.18;3.22;;;;;;;;;;9983555;29;20980;-89
2022/08/25 11:30:45;;;;;;;4.10;2.90;;;;;;;;;;9975852;29;20428;-89
2022/08/25 11:35:54;;;;;;;3.87;3.10;;;;;;;;;;9984454;29;20436;-89
2022/08/25 11:41:08;;;;;;;3.17;2.75;;;;;;;;;;9983307;29;20498;-89
2022/08/25 11:46:30;;;;;;;5.00;3.03;;;;;;;;;;9980781;29;20492;-88
2022/08/25 11:51:40;;;;;;;3.30;3.00;;;;;;;;;;9975285;29;20519;-89
2022/08/25 11:56:50;;;;;;;3.20;2.90;;;;;;;;;;9979189;29;20443;-89
2022/08/25 12:02:27;;;;;;;5.47;3.25;;;;;;;;;;9982902;29;20510;-88
2022/08/25 12:13:43;;;;;;;3.90;3.30;;;;;;;;;;9980945;29;20451;-89
2022/08/25 12:18:46;;;;;;;3.83;3.20;;;;;;;;;;9975783;29;20535;-89
2022/08/25 12:24:11;;;;;;;4.90;2.83;;;;;;;;;;9980467;29;20450;-88
2022/08/25 12:29:21;;;;;;;3.40;2.90;;;;;;;;;;9972940;29;20455;-89
2022/08/25 12:34:35;;;;;;;3.90;2.80;;;;;;;;;;9977668;29;20424;-89
2022/08/25 12:39:45;;;;;;;2.85;2.63;;;;;;;;;;9981707;29;20439;-89
2022/08/25 12:44:48;;;;;;;3.67;3.00;;;;;;;;;;9973878;29;20450;-89
2022/08/25 12:49:50;;;;;;;3.07;2.57;;;;;;;;;;9981844;29;20434;-88
2022/08/25 12:54:57;;;;;;;2.83;2.63;;;;;;;;;;9962056;29;20427;-89
2022/08/25 13:00:02;;;;;;;4.53;2.80;;;;;;;;;;9980013;29;20535;-89
2022/08/25 13:05:17;;;;;;;3.10;2.88;;;;;;;;;;9981114;29;20967;-89
2022/08/25 13:10:42;;;;;;;2.95;2.50;;;;;;;;;;9977142;29;20527;-89
2022/08/25 13:15:47;;;;;;;4.53;2.88;;;;;;;;;;9972199;29;20534;-89
2022/08/25 13:20:52;;;;;;;4.07;2.70;;;;;;;;;;9981173;29;20595;-89
2022/08/25 13:25:56;;;;;;;3.17;2.87;;;;;;;;;;9980427;29;20500;-88
2022/08/25 13:31:06;;;;;;;3.55;2.60;;;;;;;;;;9977525;29;20515;-89
2022/08/25 13:41:37;;;;;;;3.95;2.53;;;;;;;;;;9975336;29;20428;-89
2022/08/25 13:46:39;;;;;;;3.60;2.47;;;;;;;;;;9975765;29;20522;-89
2022/08/25 13:51:52;;;;;;;4.45;2.75;;;;;;;;;;9979148;29;20460;-89
2022/08/25 13:57:05;;;;;;;2.75;2.40;;;;;;;;;;9972890;29;20538;-89
2022/08/25 14:02:08;;;;;;;2.63;2.43;;;;;;;;;;9979221;29;20472;-89
2022/08/25 14:07:26;;;;;;;3.40;2.75;;;;;;;;;;9979382;29;20503;-89
2022/08/25 14:12:34;;;;;;;3.35;2.60;;;;;;;;;;9964941;29;20511;-89
2022/08/25 14:17:37;;;;;;;2.92;2.50;;;;;;;;;;9979655;29;20579;-89
2022/08/25 14:22:39;;;;;;;3.85;2.60;;;;;;;;;;9978984;29;20488;-89
2022/08/25 14:27:44;;;;;;;3.53;2.50;;;;;;;;;;9973590;29;20510;-89
2022/08/25 14:32:46;;;;;;;3.53;2.65;;;;;;;;;;9971743;29;20420;-89
2022/08/25 14:37:49;;;;;;;2.92;2.50;;;;;;;;;;9977942;29;20527;-89
2022/08/25 14:42:52;;;;;;;3.95;2.42;;;;;;;;;;9975574;29;20420;-89
2022/08/25 14:47:56;;;;;;;3.55;2.55;;;;;;;;;;9977412;29;20515;-89
2022/08/25 14:52:58;;;;;;;3.83;2.80;;;;;;;;;;9978323;29;20952;-89
2022/08/25 14:58:02;;;;;;;2.85;2.65;;;;;;;;;;9974537;29;20473;-89
2022/08/25 15:03:03;;;;;;;3.40;2.80;;;;;;;;;;9977933;29;20796;-88
2022/08/25 15:13:26;;;;;;;3.30;2.78;;;;;;;;;;9970453;29;20427;-90
2022/08/25 15:18:28;;;;;;;4.83;2.60;;;;;;;;;;9977624;29;20446;-89
2022/08/25 15:23:31;;;;;;;2.80;2.60;;;;;;;;;;9977342;29;20531;-89
2022/08/25 15:28:34;;;;;;;3.40;2.80;;;;;;;;;;9976456;29;20471;-89
2022/08/25 15:33:36;;;;;;;3.70;2.90;;;;;;;;;;9977425;29;20432;-89
2022/08/25 15:38:38;;;;;;;4.60;2.70;;;;;;;;;;9976850;29;21253;-89
2022/08/25 15:43:42;;;;;;;3.50;2.55;;;;;;;;;;9974276;29;20491;-89
2022/08/25 15:48:43;;;;;;;4.43;2.60;;;;;;;;;;9976932;29;20431;-90
2022/08/25 15:53:46;;;;;;;4.38;2.70;;;;;;;;;;9976607;29;20423;-90
2022/08/25 15:58:49;;;;;;;3.10;2.63;;;;;;;;;;9972918;29;20442;-89
2022/08/25 16:03:51;;;;;;;4.80;3.10;;;;;;;;;;9982646;29;20512;-89
2022/08/25 16:08:53;;;;;;;3.65;2.55;;;;;;;;;;9983254;29;20464;-90
2022/08/25 16:13:57;;;;;;;3.70;2.73;;;;;;;;;;9963418;29;20533;-90
2022/08/25 16:19:00;;;;;;;3.08;2.67;;;;;;;;;;9962494;29;20938;-89
2022/08/25 16:24:04;;;;;;;4.25;2.53;;;;;;;;;;9971795;29;20523;-89
2022/08/25 16:29:08;;;;;;;4.10;2.78;;;;;;;;;;10070218;24;20433;-89
2022/08/25 16:34:11;;;;;;;3.85;3.55;;;;;;;;;;10074468;29;20699;-89
2022/08/25 16:39:12;;;;;;;3.33;2.87;;;;;;;;;;10038985;29;20467;-89
2022/08/25 16:44:18;;;;;;;6.50;4.72;;;;;;;;;;10045594;29;20429;-89
2022/08/25 16:49:21;;;;;;;4.05;2.70;;;;;;;;;;10035579;29;20527;-89
2022/08/25 16:59:44;;;;;;;5.37;3.80;;;;;;;;;;10040240;29;20513;-90
2022/08/25 17:04:46;;;;;;;5.93;3.42;;;;;;;;;;10045241;29;20440;-90
2022/08/25 17:09:48;;;;;;;5.90;3.15;;;;;;;;;;10040208;29;20446;-89
2022/08/25 17:14:51;;;;;;;4.65;3.10;;;;;;;;;;10058166;29;20420;-89
2022/08/25 17:19:53;;;;;;;3.87;3.20;;;;;;;;;;10038369;29;20514;-90
2022/08/25 17:24:56;;;;;;;4.50;2.88;;;;;;;;;;10044022;29;20469;-90
2022/08/25 17:30:01;;;;;;;6.67;4.93;;;;;;;;;;10085034;29;20425;-89
2022/08/25 17:35:05;;;;;;;11.55;9.75;;;;;;;;;;10076391;29;20920;-90
2022/08/25 17:40:11;;;;;;;16.50;13.40;;;;;;;;;;10073220;29;20540;-89
2022/08/25 17:45:14;;;;;;;7.72;5.53;;;;;;;;;;10081089;29;20446;-90
2022/08/25 17:50:16;;;;;;;8.40;6.88;;;;;;;;;;10076144;29;20452;-89
2022/08/25 17:55:22;;;;;;;6.93;6.30;;;;;;;;;;10079993;29;20505;-89
2022/08/25 18:00:25;;;;;;;16.63;14.37;;;;;;;;;;10082537;29;20435;-89
2022/08/25 18:05:28;;;;;;;11.40;7.93;;;;;;;;;;10077067;29;20509;-89
2022/08/25 18:10:30;;;;;;;19.25;14.73;;;;;;;;;;10078908;29;20905;-89
2022/08/25 18:15:34;;;;;;;9.93;8.53;;;;;;;;;;10078258;29;20494;-89
2022/08/25 18:20:36;;;;;;;16.50;11.60;;;;;;;;;;10079144;29;20430;-89
2022/08/25 18:25:39;;;;;;;9.55;7.00;;;;;;;;;;10114860;29;20838;-89
2022/08/25 18:30:42;;;;;;;7.72;5.70;;;;;;;;;;10100101;29;20419;-89
2022/08/25 18:35:45;;;;;;;7.90;5.00;;;;;;;;;;10063697;29;20425;-89
2022/08/25 18:40:47;;;;;;;9.57;6.70;;;;;;;;;;10075320;29;20520;-90
2022/08/25 18:45:50;;;;;;;10.77;7.30;;;;;;;;;;10077751;29;20484;-90
2022/08/25 18:50:53;;;;;;;7.50;4.73;;;;;;;;;;10074193;29;20983;-90
2022/08/25 18:55:56;;;;;;;7.13;4.00;;;;;;;;;;10078233;29;20425;-89
2022/08/25 19:01:02;;;;;;;6.05;3.70;;;;;;;;;;10079663;29;20415;-89
2022/08/25 19:06:04;;;;;;;6.63;4.47;;;;;;;;;;10075677;29;20914;-90
2022/08/25 19:11:07;;;;;;;7.47;4.80;;;;;;;;;;10075855;29;20510;-90
2022/08/25 19:16:12;;;;;;;8.47;4.90;;;;;;;;;;10076379;29;20477;-90
2022/08/25 19:21:19;;;;;;;10.05;5.75;;;;;;;;;;10073531;29;20447;-88
2022/08/25 19:26:22;;;;;;;9.95;6.60;;;;;;;;;;10084469;29;20433;-89
2022/08/25 19:31:25;;;;;;;13.05;6.70;;;;;;;;;;10084552;29;20467;-90
2022/08/25 19:36:30;;;;;;;10.63;6.80;;;;;;;;;;10080158;29;20448;-90
2022/08/25 19:41:33;;;;;;;10.67;7.63;;;;;;;;;;10092564;29;20425;-89
2022/08/25 19:46:38;;;;;;;12.33;6.80;;;;;;;;;;10087895;29;20463;-89
2022/08/25 19:51:44;;;;;;;9.10;6.88;;;;;;;;;;10116618;29;20412;-90
2022/08/25 19:56:46;;;;;;;9.65;6.47;;;;;;;;;;10101126;29;20522;-90
2022/08/25 20:01:49;;;;;;;12.95;6.30;;;;;;;;;;10083721;29;20431;-91
2022/08/25 20:06:52;;;;;;;9.32;6.78;;;;;;;;;;10083857;29;20457;-90
2022/08/25 20:11:54;;;;;;;9.10;6.20;;;;;;;;;;10084156;29;20418;-90
2022/08/25 20:16:57;;;;;;;10.93;6.90;;;;;;;;;;10078799;29;20464;-90
2022/08/25 20:22:01;;;;;;;9.30;7.13;;;;;;;;;;10081678;29;20423;-90
2022/08/25 20:27:03;;;;;;;7.25;5.95;;;;;;;;;;10087752;29;20492;-90
2022/08/25 20:32:07;;;;;;;8.32;5.85;;;;;;;;;;10079482;29;20418;-90
2022/08/25 20:37:09;;;;;;;8.55;5.22;;;;;;;;;;10080895;29;20433;-90
2022/08/25 20:42:11;;;;;;;5.93;4.63;;;;;;;;;;10087715;29;20798;-90
2022/08/25 20:47:19;;;;;;;6.15;4.93;;;;;;;;;;10086794;29;20959;-90
2022/08/25 20:52:21;;;;;;;6.18;4.45;;;;;;;;;;10078887;29;20472;-90
2022/08/25 20:57:25;;;;;;;6.53;4.30;;;;;;;;;;10090254;29;20479;-90
2022/08/25 21:02:29;;;;;;;5.53;4.68;;;;;;;;;;10079839;29;20431;-90
2022/08/25 21:07:31;;;;;;;5.05;4.50;;;;;;;;;;10085336;29;20415;-90
2022/08/25 21:12:33;;;;;;;6.90;4.97;;;;;;;;;;10084061;29;20890;-90
2022/08/25 21:17:42;;;;;;;5.00;4.50;;;;;;;;;;10074305;29;20444;-90
2022/08/25 21:22:44;;;;;;;5.73;5.10;;;;;;;;;;10076551;29;20506;-90
2022/08/25 21:27:46;;;;;;;5.47;4.97;;;;;;;;;;10089665;29;20431;-90
2022/08/25 21:32:52;;;;;;;5.82;4.30;;;;;;;;;;10080554;29;20446;-90
2022/08/25 21:37:54;;;;;;;5.75;4.20;;;;;;;;;;10073863;29;20432;-90
2022/08/25 21:42:56;;;;;;;4.72;4.30;;;;;;;;;;10079532;29;20965;-90
2022/08/25 21:47:59;;;;;;;5.57;3.80;;;;;;;;;;10075380;29;20868;-90
2022/08/25 21:53:01;;;;;;;4.17;3.77;;;;;;;;;;10075347;29;20481;-90
2022/08/25 21:58:05;;;;;;;3.83;3.50;;;;;;;;;;10090943;29;20465;-90
2022/08/25 22:03:08;;;;;;;4.50;4.03;;;;;;;;;;10077588;29;20422;-90
2022/08/25 22:08:10;;;;;;;5.57;3.70;;;;;;;;;;10072180;29;20451;-90
2022/08/25 22:13:18;;;;;;;4.97;3.57;;;;;;;;;;10084281;29;20430;-90
2022/08/25 22:18:24;;;;;;;6.07;3.53;;;;;;;;;;10073603;29;20432;-90
2022/08/25 22:23:26;;;;;;;4.70;3.50;;;;;;;;;;10079474;29;20983;-90
2022/08/25 22:28:28;;;;;;;4.20;3.38;;;;;;;;;;10081678;29;20427;-90
2022/08/25 22:33:32;;;;;;;4.40;3.30;;;;;;;;;;10075386;29;20462;-90
2022/08/25 22:38:33;;;;;;;8.27;4.00;;;;;;;;;;10075686;29;20487;-90
2022/08/25 22:43:35;;;;;;;3.60;3.30;;;;;;;;;;10081818;29;20925;-90
2022/08/25 22:48:39;;;;;;;4.40;3.60;;;;;;;;;;10079557;29;20437;-90
2022/08/25 22:53:45;;;;;;;6.47;3.70;;;;;;;;;;10078604;29;20418;-90
2022/08/25 22:58:47;;;;;;;4.60;3.50;;;;;;;;;;10080039;29;20471;-90
2022/08/25 23:03:51;;;;;;;6.53;3.93;;;;;;;;;;10076302;29;20546;-90
2022/08/25 23:08:55;;;;;;;4.47;4.05;;;;;;;;;;10077588;29;20496;-90
2022/08/25 23:14:01;;;;;;;6.47;4.10;;;;;;;;;;10127794;29;20434;-90
2022/08/25 23:19:04;;;;;;;5.33;4.30;;;;;;;;;;10113567;29;20498;-89
2022/08/25 23:24:07;;;;;;;4.78;3.90;;;;;;;;;;10091968;29;20426;-90
2022/08/25 23:29:09;;;;;;;4.82;4.03;;;;;;;;;;10092330;29;20741;-90
2022/08/25 23:34:16;;;;;;;5.50;4.10;;;;;;;;;;10083203;29;20517;-90
2022/08/25 23:39:18;;;;;;;5.10;4.25;;;;;;;;;;10083594;29;20468;-90
2022/08/25 23:44:22;;;;;;;4.75;4.35;;;;;;;;;;10098763;29;20545;-91
2022/08/25 23:49:29;;;;;;;7.20;4.10;;;;;;;;;;10082451;29;20455;-90
2022/08/25 23:54:32;;;;;;;4.85;4.00;;;;;;;;;;10089334;29;20422;-90
2022/08/25 23:59:34;;;;;;;3.63;3.33;;;;;;;;;;10092187;29;21067;-90
